KFCS/FCS METAR and TAF weather

Enter ICAO airport designator
Station Type Date Time Source
KFCS METAR 2019/07/18 09:56 UTC NOAA

KFCS 180956Z AUTO 31007KT 10SM CLR 18/04 A3005 RMK AO2 SLP106 T01750044 $


Station Type Date Time Source
KFCS Decoded METAR 2019/07/18 09:56 UTC NOAA

Fort Carson, CO, United States (KFCS) 38-42N 104-46W 1789M
Jul 18, 2019 - 05:56 AM EDT / 2019.07.18 0956 UTC
Wind: from the NW (310 degrees) at 8 MPH (7 KT):0
Visibility: 10 mile(s):0
Sky conditions: clear
Temperature: 63.5 F (17.5 C)
Dew Point: 39.9 F (4.4 C)
Relative Humidity: 41%
Pressure (altimeter): 30.05 in. Hg (1017 hPa)
ob: KFCS 180956Z AUTO 31007KT 10SM CLR 18/04 A3005 RMK AO2 SLP106 T01750044
cycle: 10

Station Type Date Time Source
KFCS TAF 2019/07/18 05:03 UTC NOAA

TAF TAF KFCS 180500Z 1805/1911 33006KT 9999 SCT120 QNH3006INS
BECMG 1816/1817 25009KT 9999 SKC QNH3005INS
BECMG 1819/1820 16012KT 9999 FEW120 QNH2994INS
BECMG 1901/1902 23006KT 9999 SCT140 QNH2995INS
BECMG 1904/1905 32006KT 9999 FEW140 QNH2996INS TX36/1822Z TN16/1812Z

Example: see airport list